Time;durP1;ratioP1;P1;durP2;ratioP2;P2;SDS_P1;SDS_P2;PMS_P1;PMS_P2;Temp;Humidity;BMP_temperature;BMP_pressure;BME280_temperature;BME280_humidity;BME280_pressure;Samples;Min_cycle;Max_cycle;Signal;HPM_P1;HPM_P2
2023/11/16 00:01:41;;;;;;;1.00;0.65;;;;;;;12.23;75.57;99919.38;6123047;23;20805;-80
2023/11/16 00:04:07;;;;;;;1.88;1.00;;;;;;;12.38;74.95;99910.91;6127192;23;20080;-81
2023/11/16 00:06:32;;;;;;;1.27;0.82;;;;;;;12.44;74.45;99917.16;6150936;23;20013;-80
2023/11/16 00:08:58;;;;;;;1.63;0.70;;;;;;;12.40;74.93;99935.53;6123972;23;20005;-82
2023/11/16 00:11:24;;;;;;;1.80;0.70;;;;;;;12.26;74.83;99934.16;6150612;23;20001;-84
2023/11/16 00:13:50;;;;;;;1.88;0.90;;;;;;;12.33;75.37;99948.22;6151147;23;20010;-83
2023/11/16 00:16:16;;;;;;;1.95;0.60;;;;;;;12.37;75.16;99952.03;6126955;23;20016;-84
2023/11/16 00:18:42;;;;;;;3.08;0.70;;;;;;;12.23;74.62;99950.66;6128003;23;20006;-83
2023/11/16 00:21:09;;;;;;;1.55;0.70;;;;;;;12.31;74.13;99973.56;6128358;23;20093;-82
2023/11/16 00:23:34;;;;;;;1.55;0.60;;;;;;;12.19;74.34;99955.63;6127435;23;20014;-82
2023/11/16 00:26:00;;;;;;;2.88;0.85;;;;;;;12.30;74.46;99956.72;6126679;23;20104;-82
2023/11/16 00:28:26;;;;;;;1.85;0.80;;;;;;;12.21;73.97;99932.16;6125344;23;20563;-81
2023/11/16 00:30:54;;;;;;;3.13;0.73;;;;;;;12.22;74.32;99949.84;6152981;23;20009;-82
2023/11/16 00:33:20;;;;;;;1.58;0.65;;;;;;;12.48;73.19;99979.00;6127453;23;20027;-82
2023/11/16 00:35:46;;;;;;;1.58;0.82;;;;;;;12.41;73.63;99971.91;6128544;23;20458;-81
2023/11/16 00:38:15;;;;;;;2.15;0.63;;;;;;;12.24;73.16;99941.59;6151536;23;21266;-82
2023/11/16 00:40:42;;;;;;;1.52;0.82;;;;;;;12.50;72.24;99960.88;6124685;23;20009;-81
2023/11/16 00:43:09;;;;;;;0.82;0.60;;;;;;;12.50;72.67;99950.16;6124216;23;20076;-82
2023/11/16 00:45:37;;;;;;;0.88;0.60;;;;;;;12.55;71.84;99952.97;6124734;23;20340;-82
2023/11/16 00:48:02;;;;;;;1.60;0.68;;;;;;;12.45;71.66;99942.84;6124328;23;20005;-81
2023/11/16 00:50:28;;;;;;;0.75;0.47;;;;;;;12.39;71.87;99952.63;6125729;23;20075;-82
2023/11/16 00:52:55;;;;;;;0.70;0.60;;;;;;;12.47;72.18;99956.81;6151262;23;20084;-83
2023/11/16 00:55:21;;;;;;;1.83;0.55;;;;;;;12.25;71.73;99921.81;6125361;23;20020;-82
2023/11/16 00:57:47;;;;;;;1.02;0.60;;;;;;;12.41;71.49;99929.13;6125529;23;20005;-81
2023/11/16 01:00:14;;;;;;;2.20;0.65;;;;;;;12.44;71.08;99915.31;6151024;23;20100;-81
2023/11/16 01:02:40;;;;;;;0.90;0.70;;;;;;;12.43;70.79;99919.00;6125644;23;20010;-82
2023/11/16 01:05:06;;;;;;;0.68;0.50;;;;;;;12.57;71.02;99957.03;6151548;23;20036;-83
2023/11/16 01:07:32;;;;;;;1.45;0.63;;;;;;;12.69;70.19;99954.34;6125231;23;20013;-83
2023/11/16 01:10:03;;;;;;;1.90;0.40;;;;;;;12.44;70.34;99931.34;6125354;23;20506;-82
2023/11/16 01:12:29;;;;;;;0.50;0.40;;;;;;;12.35;69.88;99915.91;6124792;23;20436;-81
2023/11/16 01:14:59;;;;;;;2.05;0.40;;;;;;;12.25;70.49;99914.59;6150631;23;20009;-81
2023/11/16 01:17:31;;;;;;;0.45;0.45;;;;;;;11.91;70.38;99894.88;6151047;23;20013;-82
2023/11/16 01:19:59;;;;;;;0.95;0.50;;;;;;;12.12;71.19;99944.25;6151531;23;20021;-84
2023/11/16 01:22:28;;;;;;;1.55;0.47;;;;;;;12.29;70.74;99952.41;6124874;23;20002;-83
2023/11/16 01:24:54;;;;;;;0.98;0.40;;;;;;;11.84;71.88;99921.66;6125065;23;20119;-82
2023/11/16 01:27:25;;;;;;;1.10;0.50;;;;;;;12.04;71.15;99947.28;6124727;23;20447;-81
2023/11/16 01:29:51;;;;;;;0.40;0.40;;;;;;;11.92;71.57;99917.88;6151151;23;20033;-82
2023/11/16 01:32:17;;;;;;;0.52;0.35;;;;;;;12.00;72.00;99952.25;6150492;23;20064;-80
2023/11/16 01:34:44;;;;;;;0.60;0.40;;;;;;;11.93;71.71;99938.22;6124902;23;20006;-80
2023/11/16 01:37:10;;;;;;;0.40;0.30;;;;;;;11.82;72.28;99945.13;6124803;23;20028;-81
2023/11/16 01:39:38;;;;;;;0.80;0.40;;;;;;;11.89;71.62;99950.41;6124803;23;20355;-80
2023/11/16 01:42:05;;;;;;;0.47;0.40;;;;;;;11.87;72.78;99973.84;6124022;23;20071;-80
2023/11/16 01:44:30;;;;;;;0.55;0.35;;;;;;;11.88;72.13;99959.41;6124113;23;20005;-82
2023/11/16 01:46:56;;;;;;;1.02;0.40;;;;;;;11.64;72.42;99921.97;6150871;23;20063;-83
2023/11/16 01:49:22;;;;;;;1.88;0.80;;;;;;;11.79;72.98;99955.44;6124635;23;20021;-82
2023/11/16 01:51:55;;;;;;;0.93;0.40;;;;;;;11.58;73.20;99943.44;6125123;23;20009;-82
2023/11/16 01:54:22;;;;;;;1.27;0.60;;;;;;;11.80;73.46;99962.44;6150198;23;20092;-83
2023/11/16 01:56:48;;;;;;;0.63;0.40;;;;;;;11.73;73.92;99961.69;6150528;23;20112;-81
2023/11/16 01:59:14;;;;;;;1.65;0.70;;;;;;;11.72;73.89;99960.09;6124207;23;20024;-83
2023/11/16 02:01:41;;;;;;;0.90;0.52;;;;;;;11.62;74.56;99969.47;6126137;23;20009;-82
2023/11/16 02:04:07;;;;;;;0.90;0.60;;;;;;;11.62;74.74;99974.78;6126649;23;20651;-87
2023/11/16 02:06:32;;;;;;;1.10;0.57;;;;;;;11.70;74.43;99967.50;6127348;23;20073;-85
2023/11/16 02:08:58;;;;;;;0.43;0.40;;;;;;;11.57;74.77;99955.97;6126340;23;20017;-85
2023/11/16 02:11:24;;;;;;;0.80;0.80;;;;;;;11.49;75.34;99975.00;6128387;23;20009;-84
2023/11/16 02:13:50;;;;;;;0.60;0.50;;;;;;;11.44;75.25;99945.47;6129276;23;20010;-83
2023/11/16 02:16:16;;;;;;;1.73;0.80;;;;;;;11.39;75.39;99956.84;6125447;23;20488;-84
2023/11/16 02:18:42;;;;;;;0.95;0.60;;;;;;;11.32;76.20;99957.97;6125177;23;20013;-82
2023/11/16 02:21:08;;;;;;;1.13;0.85;;;;;;;11.42;75.69;99966.25;6124455;23;20014;-84
2023/11/16 02:23:34;;;;;;;1.35;0.75;;;;;;;11.39;76.12;99966.72;6150857;23;20002;-83
2023/11/16 02:26:00;;;;;;;1.92;0.80;;;;;;;11.24;76.65;99949.25;6150574;23;20008;-83
2023/11/16 02:28:27;;;;;;;1.30;0.65;;;;;;;11.37;76.49;99966.94;6124485;23;20017;-82
2023/11/16 02:30:53;;;;;;;1.13;0.70;;;;;;;11.19;76.73;99946.44;6150536;23;20080;-83
2023/11/16 02:33:19;;;;;;;4.28;0.90;;;;;;;11.37;76.66;99969.59;6124431;23;20040;-81
2023/11/16 02:35:45;;;;;;;1.52;0.70;;;;;;;11.22;76.52;99963.88;6150332;23;20005;-83
2023/11/16 02:38:12;;;;;;;2.08;1.10;;;;;;;11.42;75.45;99967.09;6124865;23;20012;-82
2023/11/16 02:40:39;;;;;;;0.90;0.80;;;;;;;11.23;76.71;99965.50;6124307;23;20029;-82
2023/11/16 02:43:05;;;;;;;1.33;0.75;;;;;;;11.12;75.89;99920.91;6124241;23;20013;-82
2023/11/16 02:45:32;;;;;;;1.88;0.95;;;;;;;11.45;75.74;99976.50;6125781;23;20005;-85
2023/11/16 02:47:59;;;;;;;1.52;1.02;;;;;;;11.27;75.37;99947.97;6125954;23;20018;-86
2023/11/16 02:50:26;;;;;;;1.63;1.00;;;;;;;11.42;75.75;99971.59;6124656;23;20021;-82
2023/11/16 02:52:52;;;;;;;1.52;0.88;;;;;;;11.50;74.95;99984.63;6124135;23;20010;-83
2023/11/16 02:55:20;;;;;;;1.75;1.00;;;;;;;11.19;74.82;99922.41;6125088;23;20064;-83
2023/11/16 02:57:46;;;;;;;1.42;0.90;;;;;;;11.39;75.48;99972.06;6125063;23;20013;-82
2023/11/16 03:00:12;;;;;;;2.25;1.00;;;;;;;11.33;75.86;99973.78;6124555;23;20014;-81
2023/11/16 03:02:41;;;;;;;1.42;1.02;;;;;;;11.23;75.53;99974.31;6150279;23;20163;-82
2023/11/16 03:05:10;;;;;;;2.58;0.90;;;;;;;11.47;73.73;100001.13;6125067;23;20005;-84
2023/11/16 03:07:35;;;;;;;1.90;1.08;;;;;;;11.30;74.32;100000.09;6124406;23;20013;-82
2023/11/16 03:10:01;;;;;;;1.40;0.90;;;;;;;11.27;73.88;100006.72;6124773;23;20001;-85
2023/11/16 03:12:27;;;;;;;1.60;0.75;;;;;;;11.36;73.50;99997.38;6124736;23;20551;-85
2023/11/16 03:14:53;;;;;;;2.20;1.05;;;;;;;11.23;73.54;99990.31;6124551;23;20467;-84
2023/11/16 03:17:20;;;;;;;1.73;1.13;;;;;;;11.39;73.00;100026.28;6125155;23;20188;-82
2023/11/16 03:19:46;;;;;;;1.67;1.00;;;;;;;11.16;72.92;99994.94;6124825;23;20006;-83
2023/11/16 03:22:11;;;;;;;1.40;1.05;;;;;;;11.12;73.26;100004.44;6150440;23;20088;-82
2023/11/16 03:24:37;;;;;;;1.17;0.90;;;;;;;11.17;73.35;100007.22;6124591;23;20442;-82
2023/11/16 03:27:03;;;;;;;3.05;0.85;;;;;;;11.05;72.39;99993.84;6124541;23;20017;-82
2023/11/16 03:29:30;;;;;;;2.45;0.98;;;;;;;11.10;72.14;99995.03;6150031;23;20002;-82
2023/11/16 03:31:56;;;;;;;2.72;0.93;;;;;;;11.17;72.60;100028.59;6149818;23;20012;-83
2023/11/16 03:34:22;;;;;;;0.80;0.80;;;;;;;11.12;71.98;100007.09;6123832;23;20056;-82
2023/11/16 03:36:48;;;;;;;1.08;0.70;;;;;;;11.20;71.67;100014.81;6124316;23;20009;-83
2023/11/16 03:39:13;;;;;;;2.55;0.98;;;;;;;11.29;71.14;100030.53;6124297;23;20088;-81
2023/11/16 03:41:39;;;;;;;1.90;0.75;;;;;;;11.18;70.99;100018.75;6124107;23;20355;-83
2023/11/16 03:44:05;;;;;;;1.98;1.00;;;;;;;11.35;70.67;100056.31;6150189;23;20008;-82
2023/11/16 03:46:31;;;;;;;1.35;1.08;;;;;;;11.34;70.55;100049.34;6123926;23;20005;-83
2023/11/16 03:48:56;;;;;;;2.05;0.90;;;;;;;11.26;70.57;100051.28;6123781;23;20013;-83
2023/11/16 03:51:22;;;;;;;1.30;0.90;;;;;;;11.15;70.17;100046.69;6124554;23;20380;-85
2023/11/16 03:53:47;;;;;;;2.70;1.25;;;;;;;11.45;68.66;100059.28;6124117;23;20013;-84
2023/11/16 03:56:13;;;;;;;1.63;0.98;;;;;;;11.22;69.13;100036.75;6124217;23;20013;-83
2023/11/16 03:58:38;;;;;;;2.90;1.13;;;;;;;11.29;68.80;100049.22;6124219;23;20453;-82
2023/11/16 04:01:04;;;;;;;1.83;1.40;;;;;;;11.28;69.23;100053.75;6150231;23;20005;-83
2023/11/16 04:03:29;;;;;;;1.98;1.00;;;;;;;11.34;69.02;100062.69;6124040;23;20018;-82
2023/11/16 04:05:55;;;;;;;2.72;1.20;;;;;;;11.28;69.07;100048.41;6124315;23;20009;-82
2023/11/16 04:08:20;;;;;;;3.53;1.25;;;;;;;11.27;69.28;100046.75;6123839;23;20014;-83
2023/11/16 04:10:46;;;;;;;1.27;0.75;;;;;;;11.32;68.82;100046.06;6149718;23;20029;-83
2023/11/16 04:13:11;;;;;;;1.40;0.80;;;;;;;11.26;68.84;100059.28;6149363;23;20144;-83
2023/11/16 04:15:39;;;;;;;2.13;1.10;;;;;;;11.08;69.33;100035.28;6150387;23;20009;-82
2023/11/16 04:18:05;;;;;;;2.00;1.20;;;;;;;11.16;68.85;100048.31;6150036;23;20013;-83
2023/11/16 04:20:31;;;;;;;1.92;1.20;;;;;;;11.19;68.96;100053.19;6124363;23;20032;-84
2023/11/16 04:22:59;;;;;;;2.28;1.10;;;;;;;11.40;68.37;100078.66;6124377;23;20442;-81
2023/11/16 04:25:27;;;;;;;1.33;0.90;;;;;;;11.25;68.64;100046.97;6124120;23;20522;-83
2023/11/16 04:27:59;;;;;;;;;;;;;;;11.42;68.75;100089.09;6150042;23;20068;-83
2023/11/16 04:30:30;;;;;;;1.80;0.90;;;;;;;11.26;68.23;100067.31;6123758;23;19968;-84
2023/11/16 04:32:57;;;;;;;1.63;0.98;;;;;;;11.34;67.58;100079.53;6123618;23;20029;-83
2023/11/16 04:35:23;;;;;;;1.42;1.02;;;;;;;11.15;68.59;100089.38;6149524;23;20037;-82
2023/11/16 04:37:50;;;;;;;1.58;1.10;;;;;;;11.17;68.70;100087.31;6123836;23;20012;-84
2023/11/16 04:40:16;;;;;;;1.83;1.13;;;;;;;11.38;67.62;100104.75;6150085;23;20421;-82
2023/11/16 04:42:43;;;;;;;1.38;0.90;;;;;;;11.35;67.79;100104.38;6149760;23;20021;-82
2023/11/16 04:45:12;;;;;;;1.58;1.10;;;;;;;11.24;67.23;100082.72;6123531;23;20519;-83
2023/11/16 04:47:44;;;;;;;1.90;1.10;;;;;;;11.17;67.62;100089.97;6123027;23;20009;-83
2023/11/16 04:50:13;;;;;;;1.55;0.90;;;;;;;11.36;67.65;100101.50;6123054;23;20092;-81
2023/11/16 04:52:39;;;;;;;2.08;0.95;;;;;;;11.19;67.53;100063.88;6122709;23;20009;-83
2023/11/16 04:55:05;;;;;;;1.63;0.90;;;;;;;11.23;67.55;100094.44;6123116;23;20005;-82
2023/11/16 04:57:30;;;;;;;3.67;1.25;;;;;;;11.25;68.07;100119.03;6149342;23;20017;-81
2023/11/16 04:59:56;;;;;;;3.85;2.00;;;;;;;11.11;68.05;100106.88;6149285;23;20005;-81
2023/11/16 05:02:21;;;;;;;2.47;1.48;;;;;;;11.18;68.13;100114.84;6149094;23;20009;-81
2023/11/16 05:04:47;;;;;;;6.03;2.28;;;;;;;11.09;68.55;100105.47;6149591;23;20006;-82
2023/11/16 05:07:13;;;;;;;2.25;1.42;;;;;;;11.14;69.38;100124.31;6150168;23;20012;-81
2023/11/16 05:09:39;;;;;;;3.10;1.48;;;;;;;11.21;69.09;100128.53;6124922;23;20037;-82
2023/11/16 05:12:08;;;;;;;3.53;1.38;;;;;;;11.07;68.91;100124.38;6125013;23;20111;-82
2023/11/16 05:14:34;;;;;;;1.77;1.10;;;;;;;11.30;68.78;100155.78;6124581;23;20060;-82
2023/11/16 05:17:01;;;;;;;2.53;1.40;;;;;;;11.20;68.82;100155.47;6124844;23;20001;-82
2023/11/16 05:19:26;;;;;;;2.28;1.10;;;;;;;10.98;69.28;100136.38;6124779;23;20029;-82
2023/11/16 05:21:53;;;;;;;2.33;1.10;;;;;;;11.22;68.64;100164.88;6124604;23;20427;-82
2023/11/16 05:24:19;;;;;;;2.55;1.27;;;;;;;11.21;68.60;100157.91;6124349;23;20573;-82
2023/11/16 05:26:44;;;;;;;1.60;1.08;;;;;;;11.34;68.78;100174.81;6150311;23;20084;-82
2023/11/16 05:29:10;;;;;;;1.60;1.05;;;;;;;11.37;68.60;100185.06;6150817;23;20005;-83
2023/11/16 05:31:36;;;;;;;4.18;1.38;;;;;;;10.96;69.67;100149.94;6124586;23;20009;-81
2023/11/16 05:34:03;;;;;;;2.15;1.10;;;;;;;11.22;69.27;100188.91;6150338;23;20033;-83
2023/11/16 05:36:29;;;;;;;1.80;1.20;;;;;;;11.32;68.77;100175.06;6124266;23;20411;-82
2023/11/16 05:38:58;;;;;;;2.83;1.27;;;;;;;11.25;69.12;100196.47;6124591;23;20435;-81
2023/11/16 05:41:23;;;;;;;6.72;2.38;;;;;;;11.24;69.16;100186.03;6150484;23;20089;-82
2023/11/16 05:43:49;;;;;;;5.13;1.90;;;;;;;11.36;68.93;100208.28;6124301;23;20044;-82
2023/11/16 05:46:15;;;;;;;4.78;1.58;;;;;;;11.26;69.17;100202.66;6150811;23;20059;-83
2023/11/16 05:48:40;;;;;;;3.35;1.88;;;;;;;11.12;69.52;100199.28;6124500;23;20728;-83
2023/11/16 05:51:06;;;;;;;2.85;1.35;;;;;;;11.29;68.42;100196.03;6124056;23;20072;-83
2023/11/16 05:53:33;;;;;;;2.72;1.33;;;;;;;11.48;68.29;100237.75;6124183;23;20006;-82
2023/11/16 05:55:59;;;;;;;5.45;1.52;;;;;;;11.27;68.89;100218.41;6124345;23;20009;-82
2023/11/16 05:58:24;;;;;;;2.67;1.17;;;;;;;11.32;68.34;100215.13;6124499;23;20009;-83
2023/11/16 06:00:51;;;;;;;3.90;1.50;;;;;;;11.46;68.16;100231.81;6124764;23;20403;-81
2023/11/16 06:03:18;;;;;;;3.22;1.40;;;;;;;11.42;67.78;100233.28;6125015;23;20101;-84
2023/11/16 06:05:43;;;;;;;3.22;1.40;;;;;;;11.45;67.44;100211.50;6124573;23;20085;-83
2023/11/16 06:08:09;;;;;;;3.88;1.50;;;;;;;11.73;66.82;100250.22;6125264;23;20041;-83
2023/11/16 06:10:35;;;;;;;2.50;1.30;;;;;;;11.64;67.22;100247.84;6126803;23;20014;-83
2023/11/16 06:13:00;;;;;;;2.35;1.15;;;;;;;11.79;66.67;100244.84;6124499;23;20069;-83
2023/11/16 06:15:28;;;;;;;4.63;1.23;;;;;;;11.74;66.90;100259.91;6124825;23;20010;-83
2023/11/16 06:17:58;;;;;;;1.55;1.20;;;;;;;11.82;65.67;100246.25;6125482;23;20436;-83
2023/11/16 06:20:23;;;;;;;2.97;1.38;;;;;;;11.94;65.93;100260.53;6124673;23;20013;-83
2023/11/16 06:22:50;;;;;;;2.50;1.33;;;;;;;11.68;66.94;100255.44;6125084;23;20067;-82
2023/11/16 06:25:16;;;;;;;2.67;1.20;;;;;;;11.87;65.88;100267.78;6151023;23;21138;-84
2023/11/16 06:27:42;;;;;;;5.20;1.35;;;;;;;11.86;66.47;100276.81;6125393;23;20021;-81
2023/11/16 06:30:08;;;;;;;2.83;1.45;;;;;;;12.01;65.63;100282.66;6124320;23;20009;-83
2023/11/16 06:32:36;;;;;;;2.63;1.38;;;;;;;12.16;64.89;100300.19;6123559;23;20013;-81
2023/11/16 06:35:03;;;;;;;1.92;1.13;;;;;;;12.20;64.47;100293.34;6124490;23;20017;-85
2023/11/16 06:37:29;;;;;;;3.28;1.23;;;;;;;12.22;64.35;100289.41;6125322;23;20072;-85
2023/11/16 06:39:54;;;;;;;4.47;1.73;;;;;;;12.36;63.55;100276.69;6125778;23;20017;-85
2023/11/16 06:42:20;;;;;;;2.00;1.40;;;;;;;12.45;63.12;100283.34;6125780;23;20100;-84
2023/11/16 06:44:48;;;;;;;2.67;1.35;;;;;;;12.62;62.76;100282.72;6125217;23;20071;-83
2023/11/16 06:47:15;;;;;;;2.28;1.30;;;;;;;12.42;62.78;100270.44;6125492;23;20014;-85
2023/11/16 06:49:41;;;;;;;2.72;1.20;;;;;;;12.53;62.14;100273.38;6125723;23;20363;-84
2023/11/16 06:52:07;;;;;;;3.70;1.27;;;;;;;12.71;61.76;100302.78;6125842;23;20016;-85
2023/11/16 06:54:33;;;;;;;1.63;1.10;;;;;;;12.80;61.56;100311.28;6126127;23;20012;-84
2023/11/16 06:56:59;;;;;;;3.60;1.30;;;;;;;12.90;61.13;100282.13;6125524;23;20006;-85
2023/11/16 06:59:25;;;;;;;1.63;0.95;;;;;;;12.94;60.68;100295.88;6125888;23;20013;-85
2023/11/16 07:01:52;;;;;;;1.92;1.10;;;;;;;12.90;60.85;100284.78;6125694;23;20006;-85
2023/11/16 07:04:21;;;;;;;5.23;1.70;;;;;;;13.21;59.98;100315.81;6151917;23;20018;-86
2023/11/16 07:06:46;;;;;;;5.00;1.95;;;;;;;13.08;59.85;100294.63;6125791;23;20064;-84
2023/11/16 07:09:17;;;;;;;2.83;1.27;;;;;;;13.23;59.64;100302.22;6125838;23;20010;-85
2023/11/16 07:11:43;;;;;;;3.58;1.30;;;;;;;13.22;59.52;100330.84;6125960;23;20005;-85
2023/11/16 07:14:10;;;;;;;3.35;1.55;;;;;;;13.39;59.67;100332.91;6151742;23;20005;-85
2023/11/16 07:16:36;;;;;;;3.72;1.40;;;;;;;13.70;58.36;100330.94;6125627;23;20006;-84
2023/11/16 07:19:01;;;;;;;3.22;1.67;;;;;;;13.78;57.81;100335.94;6125828;23;20036;-84
2023/11/16 07:21:27;;;;;;;2.83;1.60;;;;;;;13.65;58.34;100316.38;6125951;23;20010;-84
2023/11/16 07:23:52;;;;;;;4.18;1.95;;;;;;;13.71;58.09;100341.44;6125766;23;20279;-84
2023/11/16 07:26:18;;;;;;;3.88;1.83;;;;;;;13.58;57.98;100331.72;6125922;23;20089;-84
2023/11/16 07:28:45;;;;;;;4.63;2.22;;;;;;;13.74;57.49;100345.50;6126367;23;20083;-84
2023/11/16 07:31:15;;;;;;;3.67;1.90;;;;;;;13.80;57.47;100344.56;6125825;23;20381;-84
2023/11/16 07:33:41;;;;;;;4.22;2.10;;;;;;;13.92;56.83;100366.84;6125166;23;20096;-86
2023/11/16 07:36:07;;;;;;;4.18;1.92;;;;;;;14.09;56.17;100352.72;6125548;23;20087;-84
2023/11/16 07:38:33;;;;;;;4.47;2.10;;;;;;;14.21;56.43;100375.78;6125718;23;20017;-84
2023/11/16 07:40:58;;;;;;;4.75;2.10;;;;;;;14.11;55.99;100374.75;6125506;23;20061;-85
2023/11/16 07:43:24;;;;;;;5.15;2.28;;;;;;;14.11;56.33;100377.44;6125437;23;20014;-84
2023/11/16 07:45:50;;;;;;;6.13;2.40;;;;;;;14.46;56.11;100382.75;6124925;23;20044;-83
2023/11/16 07:48:15;;;;;;;5.20;2.15;;;;;;;14.55;54.60;100372.47;6123643;23;20440;-83
2023/11/16 07:50:42;;;;;;;5.20;1.90;;;;;;;14.47;55.30;100365.59;6150968;23;20010;-84
2023/11/16 07:53:10;;;;;;;4.85;2.05;;;;;;;14.81;53.71;100377.31;6150438;23;20091;-83
2023/11/16 07:55:37;;;;;;;4.22;2.33;;;;;;;14.73;53.72;100393.81;6124371;23;20006;-84
2023/11/16 07:58:03;;;;;;;4.15;2.00;;;;;;;14.76;52.93;100379.09;6125192;23;20008;-84
2023/11/16 08:00:37;;;;;;;6.97;2.42;;;;;;;14.58;53.53;100398.84;6124293;23;20064;-83
2023/11/16 08:05:48;;;;;;;4.45;2.03;;;;;;;14.93;51.97;100379.94;6149934;23;20582;-82
2023/11/16 08:08:15;;;;;;;5.40;1.80;;;;;;;15.27;50.68;100399.66;6123863;23;20041;-84
2023/11/16 08:10:50;;;;;;;2.95;1.83;;;;;;;15.09;51.15;100378.34;6124853;23;20010;-82
2023/11/16 08:13:19;;;;;;;5.65;2.20;;;;;;;15.21;51.15;100399.81;6125091;23;20006;-85
2023/11/16 08:15:52;;;;;;;4.95;2.03;;;;;;;15.16;50.93;100384.41;6150975;23;20017;-84
2023/11/16 08:18:21;;;;;;;4.85;2.13;;;;;;;15.53;50.60;100373.22;6125407;23;20348;-85
2023/11/16 08:20:47;;;;;;;4.72;2.40;;;;;;;15.54;50.19;100392.84;6125038;23;20078;-83
2023/11/16 08:23:13;;;;;;;6.22;1.95;;;;;;;15.40;49.73;100374.31;6124486;23;20005;-84
2023/11/16 08:25:39;;;;;;;4.60;2.13;;;;;;;15.78;48.74;100390.84;6125541;23;20432;-84
2023/11/16 08:28:08;;;;;;;3.17;1.67;;;;;;;15.53;48.90;100386.66;6125002;23;20020;-84
2023/11/16 08:30:33;;;;;;;2.65;1.50;;;;;;;15.45;48.96;100365.56;6151178;23;20456;-86
2023/11/16 08:33:00;;;;;;;4.00;1.48;;;;;;;15.37;48.06;100357.91;6124619;23;20033;-85
2023/11/16 08:35:26;;;;;;;2.78;1.25;;;;;;;15.83;46.48;100377.47;6124973;23;20016;-85
2023/11/16 08:37:54;;;;;;;2.88;1.00;;;;;;;15.92;45.86;100394.81;6125077;23;20344;-85
2023/11/16 08:40:20;;;;;;;1.33;0.77;;;;;;;15.74;45.94;100379.75;6127492;23;20020;-85
2023/11/16 08:42:46;;;;;;;2.72;1.48;;;;;;;15.80;45.73;100386.03;6126380;23;20006;-85
2023/11/16 08:45:20;;;;;;;3.42;1.15;;;;;;;15.99;43.91;100411.59;6125868;23;20457;-81
2023/11/16 08:47:47;;;;;;;2.90;1.02;;;;;;;15.85;44.74;100408.44;6125583;23;20017;-82
2023/11/16 08:50:13;;;;;;;3.33;1.10;;;;;;;15.97;44.76;100384.13;6153139;23;20101;-85
2023/11/16 08:52:45;;;;;;;2.72;0.93;;;;;;;16.16;44.07;100371.22;6127231;23;20461;-85
2023/11/16 08:55:12;;;;;;;3.53;1.30;;;;;;;16.18;43.89;100376.34;6127002;23;20017;-85
2023/11/16 08:57:40;;;;;;;1.42;0.98;;;;;;;16.42;43.45;100377.72;6126729;23;20001;-85
2023/11/16 09:00:27;;;;;;;2.53;1.08;;;;;;;16.61;42.36;100407.03;6126972;23;20040;-85
2023/11/16 09:02:56;;;;;;;1.75;0.80;;;;;;;16.15;42.46;100385.72;6127364;23;20140;-86
2023/11/16 09:05:25;;;;;;;1.67;0.60;;;;;;;16.15;43.71;100385.72;6127000;23;20006;-85
2023/11/16 09:07:55;;;;;;;2.88;0.90;;;;;;;16.79;42.19;100387.88;6127042;23;20006;-85
2023/11/16 09:10:21;;;;;;;1.88;0.80;;;;;;;16.76;41.10;100391.06;6127042;23;20009;-84
2023/11/16 09:12:53;;;;;;;3.83;0.90;;;;;;;16.97;41.11;100386.75;6152855;23;20416;-84
2023/11/16 09:15:20;;;;;;;2.28;0.98;;;;;;;16.89;40.82;100399.88;6126843;23;20723;-86
2023/11/16 09:17:46;;;;;;;1.58;0.80;;;;;;;16.72;41.04;100383.75;6126672;23;20068;-84
2023/11/16 09:20:12;;;;;;;1.20;0.90;;;;;;;16.57;41.08;100374.44;6126752;23;20092;-85
2023/11/16 09:22:38;;;;;;;2.28;0.70;;;;;;;16.80;40.91;100381.44;6126682;23;20013;-84
2023/11/16 09:25:06;;;;;;;1.20;0.85;;;;;;;16.87;40.42;100373.97;6126631;23;20037;-85
2023/11/16 09:27:38;;;;;;;1.25;0.80;;;;;;;17.08;39.41;100382.31;6126845;23;20009;-86
2023/11/16 09:30:05;;;;;;;2.10;0.90;;;;;;;16.95;39.37;100371.91;6126748;23;20064;-87
2023/11/16 09:32:34;;;;;;;3.03;0.90;;;;;;;17.03;39.26;100374.16;6126322;23;20010;-85
2023/11/16 09:35:03;;;;;;;2.45;0.80;;;;;;;16.93;39.01;100390.22;6126531;23;20044;-83
2023/11/16 09:37:32;;;;;;;2.45;0.80;;;;;;;16.86;39.29;100390.41;6126572;23;20005;-86
2023/11/16 09:39:57;;;;;;;1.70;0.77;;;;;;;17.12;39.53;100378.03;6126958;23;20016;-86
2023/11/16 09:42:26;;;;;;;1.67;0.90;;;;;;;17.54;39.32;100384.59;6126825;23;20010;-85
2023/11/16 09:45:00;;;;;;;3.88;1.00;;;;;;;17.30;38.36;100362.53;6126388;23;20020;-86
2023/11/16 09:47:29;;;;;;;1.63;0.80;;;;;;;17.67;38.37;100374.19;6126641;23;20088;-85
2023/11/16 09:49:56;;;;;;;3.67;0.88;;;;;;;17.66;37.89;100385.22;6126281;23;20025;-85
2023/11/16 09:52:33;;;;;;;1.42;0.70;;;;;;;17.38;37.76;100372.88;6126376;23;20432;-85
2023/11/16 09:55:00;;;;;;;2.57;0.77;;;;;;;17.21;38.47;100376.50;6126528;23;20013;-85
2023/11/16 09:57:31;;;;;;;0.98;0.70;;;;;;;17.36;37.66;100380.41;6125731;23;20013;-85
2023/11/16 09:59:59;;;;;;;1.88;0.80;;;;;;;17.54;38.14;100381.91;6126411;23;20040;-85
2023/11/16 10:02:25;;;;;;;3.20;1.20;;;;;;;17.21;37.75;100327.97;6125738;23;20009;-84
2023/11/16 10:04:53;;;;;;;2.47;0.90;;;;;;;17.51;37.67;100367.06;6126189;23;20009;-85
2023/11/16 10:07:25;;;;;;;1.55;0.70;;;;;;;17.41;37.56;100359.69;6126283;23;20071;-88
2023/11/16 10:09:55;;;;;;;0.98;0.68;;;;;;;17.32;37.71;100369.31;6127005;23;20088;-84
2023/11/16 10:12:20;;;;;;;2.42;1.00;;;;;;;17.76;37.39;100352.94;6126538;23;20083;-85
2023/11/16 10:14:51;;;;;;;1.85;0.80;;;;;;;18.17;36.24;100365.91;6126215;23;20029;-84
2023/11/16 10:17:25;;;;;;;3.90;1.10;;;;;;;18.51;35.58;100370.91;6125772;23;20044;-85
2023/11/16 10:19:53;;;;;;;1.58;0.77;;;;;;;18.53;35.58;100372.28;6126633;23;20363;-86
2023/11/16 10:22:19;;;;;;;1.60;1.00;;;;;;;18.31;35.41;100344.63;6126880;23;20016;-86
2023/11/16 10:24:47;;;;;;;2.28;1.00;;;;;;;18.05;35.58;100344.50;6126877;23;20088;-86
2023/11/16 10:27:13;;;;;;;0.95;0.60;;;;;;;18.43;35.23;100375.75;6126811;23;20519;-85
2023/11/16 10:29:39;;;;;;;4.13;0.80;;;;;;;18.62;35.19;100359.88;6126848;23;20041;-85
2023/11/16 10:32:06;;;;;;;0.70;0.57;;;;;;;18.87;34.07;100351.06;6126495;23;20389;-84
2023/11/16 10:34:32;;;;;;;1.90;0.55;;;;;;;18.25;34.95;100373.50;6126585;23;20044;-86
2023/11/16 10:37:00;;;;;;;0.65;0.50;;;;;;;18.25;34.35;100365.41;6126457;23;20009;-87
2023/11/16 10:39:27;;;;;;;1.25;0.57;;;;;;;18.39;34.85;100385.44;6125213;23;20047;-86
2023/11/16 10:41:53;;;;;;;1.67;0.73;;;;;;;18.44;35.14;100382.75;6135374;23;20053;-85
2023/11/16 10:44:23;;;;;;;1.98;0.80;;;;;;;18.60;35.66;100380.13;6137544;23;20037;-85
2023/11/16 10:46:49;;;;;;;1.45;0.85;;;;;;;18.68;34.03;100355.31;6137406;23;20069;-86
2023/11/16 10:49:16;;;;;;;1.73;0.90;;;;;;;18.84;34.00;100386.72;6136565;23;20018;-85
2023/11/16 10:51:50;;;;;;;1.25;0.77;;;;;;;18.61;33.75;100355.56;6138247;23;20020;-86
2023/11/16 10:54:20;;;;;;;1.73;0.98;;;;;;;18.65;33.90;100334.22;6138285;23;20025;-86
2023/11/16 10:56:48;;;;;;;3.95;0.80;;;;;;;18.27;34.70;100345.16;6139762;23;20009;-85
2023/11/16 10:59:16;;;;;;;1.27;0.73;;;;;;;18.09;35.09;100355.59;6140382;23;20619;-86
2023/11/16 11:01:42;;;;;;;2.28;0.90;;;;;;;18.36;34.88;100341.97;6137578;23;20017;-85
2023/11/16 11:04:07;;;;;;;2.90;0.88;;;;;;;18.59;34.82;100340.69;6137345;23;20013;-86
2023/11/16 11:06:41;;;;;;;2.40;1.10;;;;;;;18.51;33.94;100325.81;6136871;23;20363;-86
2023/11/16 11:09:08;;;;;;;3.17;1.13;;;;;;;18.65;34.29;100336.91;6163263;23;20001;-86
2023/11/16 11:11:40;;;;;;;1.85;1.08;;;;;;;19.24;33.82;100347.31;6132586;23;20009;-84
2023/11/16 11:14:06;;;;;;;1.23;0.93;;;;;;;19.39;32.75;100364.63;6155506;23;19997;-84
2023/11/16 11:16:32;;;;;;;1.83;0.80;;;;;;;19.61;32.56;100343.53;6129149;23;20021;-84
2023/11/16 11:18:58;;;;;;;4.05;0.90;;;;;;;19.24;32.86;100355.44;6129588;23;20010;-85
2023/11/16 11:21:26;;;;;;;1.98;0.85;;;;;;;19.06;33.37;100342.44;6129313;23;20021;-85
2023/11/16 11:24:05;;;;;;;4.72;2.05;;;;;;;18.92;33.04;100338.63;6129440;23;20006;-85
2023/11/16 11:26:43;;;;;;;2.25;1.48;;;;;;;18.67;33.64;100338.28;6129697;23;20006;-86
2023/11/16 11:29:10;;;;;;;2.47;0.73;;;;;;;19.11;33.60;100349.75;6128934;23;20010;-84